sensor_id;sensor_type;location;lat;lon;timestamp;pressure;altitude;pressure_sealevel;temperature;humidity
12913;BME280;6524;51.368;11.984;2024-02-21T00:00:37;153230.34;;;6.27;66.70
12913;BME280;6524;51.368;11.984;2024-02-21T00:05:38;153253.75;;;6.36;66.25
12913;BME280;6524;51.368;11.984;2024-02-21T00:10:38;153223.81;;;6.24;66.94
12913;BME280;6524;51.368;11.984;2024-02-21T00:15:39;153239.44;;;6.31;66.31
12913;BME280;6524;51.368;11.984;2024-02-21T00:20:39;153283.66;;;6.48;65.99
12913;BME280;6524;51.368;11.984;2024-02-21T00:25:39;153278.44;;;6.46;65.91
12913;BME280;6524;51.368;11.984;2024-02-21T00:30:39;153229.03;;;6.26;66.48
12913;BME280;6524;51.368;11.984;2024-02-21T00:35:40;153214.72;;;6.21;66.29
12913;BME280;6524;51.368;11.984;2024-02-21T00:40:40;153262.84;;;6.40;65.72
12913;BME280;6524;51.368;11.984;2024-02-21T00:45:41;153218.66;;;6.22;66.53
12913;BME280;6524;51.368;11.984;2024-02-21T00:50:42;153216.03;;;6.21;66.27
12913;BME280;6524;51.368;11.984;2024-02-21T00:55:42;153121.06;;;5.84;67.12
12913;BME280;6524;51.368;11.984;2024-02-21T01:06:07;153273.22;;;6.44;65.92
12913;BME280;6524;51.368;11.984;2024-02-21T01:11:08;153245.94;;;6.33;66.17
12913;BME280;6524;51.368;11.984;2024-02-21T01:16:08;153183.53;;;6.09;66.79
12913;BME280;6524;51.368;11.984;2024-02-21T01:21:08;153179.66;;;6.07;67.08
12913;BME280;6524;51.368;11.984;2024-02-21T01:26:10;153195.25;;;6.13;66.94
12913;BME280;6524;51.368;11.984;2024-02-21T01:31:13;153178.34;;;6.07;67.36
12913;BME280;6524;51.368;11.984;2024-02-21T01:36:15;153214.72;;;6.21;66.80
12913;BME280;6524;51.368;11.984;2024-02-21T05:00:52;153104.19;;;5.77;71.61
12913;BME280;6524;51.368;11.984;2024-02-21T05:05:54;153197.84;;;6.14;70.35
12913;BME280;6524;51.368;11.984;2024-02-21T05:10:55;153157.53;;;5.98;70.98
12913;BME280;6524;51.368;11.984;2024-02-21T05:15:55;153212.16;;;6.20;70.25
12913;BME280;6524;51.368;11.984;2024-02-21T05:20:55;153166.63;;;6.02;70.46
12913;BME280;6524;51.368;11.984;2024-02-21T05:25:56;153132.84;;;5.89;71.15
12913;BME280;6524;51.368;11.984;2024-02-21T05:30:56;153114.63;;;5.81;71.08
12913;BME280;6524;51.368;11.984;2024-02-21T05:35:57;153024.91;;;5.46;72.00
12913;BME280;6524;51.368;11.984;2024-02-21T05:40:57;153015.81;;;5.43;72.64
12913;BME280;6524;51.368;11.984;2024-02-21T05:45:58;153053.50;;;5.57;72.22
12913;BME280;6524;51.368;11.984;2024-02-21T05:51:01;153011.94;;;5.41;72.72
12913;BME280;6524;51.368;11.984;2024-02-21T05:56:01;152957.38;;;5.20;72.96
12913;BME280;6524;51.368;11.984;2024-02-21T06:01:02;152997.63;;;5.35;73.23
12913;BME280;6524;51.368;11.984;2024-02-21T06:06:03;152966.44;;;5.23;73.35
12913;BME280;6524;51.368;11.984;2024-02-21T06:11:05;152944.34;;;5.15;73.52
12913;BME280;6524;51.368;11.984;2024-02-21T06:16:06;152936.56;;;5.11;73.58
12913;BME280;6524;51.368;11.984;2024-02-21T06:21:07;152972.97;;;5.26;73.43
12913;BME280;6524;51.368;11.984;2024-02-21T06:26:07;152935.28;;;5.11;74.23
12913;BME280;6524;51.368;11.984;2024-02-21T06:31:07;153047.00;;;5.55;72.75
12913;BME280;6524;51.368;11.984;2024-02-21T06:36:08;153127.63;;;5.87;71.65
12913;BME280;6524;51.368;11.984;2024-02-21T06:41:16;153364.28;;;6.80;76.08
12913;BME280;6524;51.368;11.984;2024-02-21T06:46:26;153481.44;;;7.26;68.73
12913;BME280;6524;51.368;11.984;2024-02-21T06:51:29;153536.06;;;7.47;67.58
12913;BME280;6524;51.368;11.984;2024-02-21T06:56:32;153411.13;;;6.98;67.75
12913;BME280;6524;51.368;11.984;2024-02-21T07:01:33;153309.66;;;6.58;68.61
12913;BME280;6524;51.368;11.984;2024-02-21T07:06:33;153213.44;;;6.20;70.08
12913;BME280;6524;51.368;11.984;2024-02-21T07:11:34;153157.53;;;5.98;70.19
12913;BME280;6524;51.368;11.984;2024-02-21T07:16:34;153270.63;;;6.43;69.29
12913;BME280;6524;51.368;11.984;2024-02-21T07:21:35;153231.63;;;6.27;69.74
12913;BME280;6524;51.368;11.984;2024-02-21T07:26:43;153244.66;;;6.33;69.64
12913;BME280;6524;51.368;11.984;2024-02-21T07:31:44;153271.94;;;6.43;70.20
12913;BME280;6524;51.368;11.984;2024-02-21T07:36:45;153251.16;;;6.35;69.62
12913;BME280;6524;51.368;11.984;2024-02-21T07:41:45;153278.44;;;6.46;69.21
12913;BME280;6524;51.368;11.984;2024-02-21T07:46:48;153340.88;;;6.70;68.57
12913;BME280;6524;51.368;11.984;2024-02-21T07:51:48;153359.06;;;6.78;68.25
12913;BME280;6524;51.368;11.984;2024-02-21T07:56:48;153340.88;;;6.70;68.89
12913;BME280;6524;51.368;11.984;2024-02-21T08:01:49;153348.69;;;6.73;68.67
12913;BME280;6524;51.368;11.984;2024-02-21T08:06:53;153247.22;;;6.34;70.40
12913;BME280;6524;51.368;11.984;2024-02-21T08:11:54;153282.38;;;6.47;69.41
12913;BME280;6524;51.368;11.984;2024-02-21T08:16:54;153301.84;;;6.55;69.19
12913;BME280;6524;51.368;11.984;2024-02-21T08:21:55;153314.88;;;6.60;69.06
12913;BME280;6524;51.368;11.984;2024-02-21T08:26:56;153363.00;;;6.79;68.70
12913;BME280;6524;51.368;11.984;2024-02-21T08:31:56;153314.88;;;6.60;68.80
12913;BME280;6524;51.368;11.984;2024-02-21T08:36:56;153366.88;;;6.81;68.21
12913;BME280;6524;51.368;11.984;2024-02-21T08:41:57;153369.50;;;6.82;68.35
12913;BME280;6524;51.368;11.984;2024-02-21T08:46:57;153387.72;;;6.89;68.34
12913;BME280;6524;51.368;11.984;2024-02-21T08:51:57;153366.88;;;6.81;68.68
12913;BME280;6524;51.368;11.984;2024-02-21T08:56:58;153407.19;;;6.96;67.74
12913;BME280;6524;51.368;11.984;2024-02-21T09:01:58;153448.81;;;7.13;66.91
12913;BME280;6524;51.368;11.984;2024-02-21T09:06:59;153468.34;;;7.20;66.66
12913;BME280;6524;51.368;11.984;2024-02-21T09:11:59;153447.53;;;7.12;67.01
12913;BME280;6524;51.368;11.984;2024-02-21T09:17:05;153465.78;;;7.19;65.87
12913;BME280;6524;51.368;11.984;2024-02-21T09:22:06;153404.59;;;6.95;66.35
12913;BME280;6524;51.368;11.984;2024-02-21T09:27:06;153342.16;;;6.71;66.62
12913;BME280;6524;51.368;11.984;2024-02-21T09:32:07;153416.28;;;7.00;65.68
12913;BME280;6524;51.368;11.984;2024-02-21T09:37:07;153431.91;;;7.06;65.81
12913;BME280;6524;51.368;11.984;2024-02-21T09:42:11;153385.06;;;6.88;66.21
12913;BME280;6524;51.368;11.984;2024-02-21T09:47:17;153434.53;;;7.07;65.30
12913;BME280;6524;51.368;11.984;2024-02-21T09:52:20;153387.72;;;6.89;65.91
12913;BME280;6524;51.368;11.984;2024-02-21T09:57:22;153346.09;;;6.72;65.44
12913;BME280;6524;51.368;11.984;2024-02-21T10:02:23;153386.41;;;6.88;65.14
12913;BME280;6524;51.368;11.984;2024-02-21T10:07:23;153390.28;;;6.90;64.97
12913;BME280;6524;51.368;11.984;2024-02-21T10:12:28;153511.34;;;7.37;64.23
12913;BME280;6524;51.368;11.984;2024-02-21T10:17:32;153616.78;;;7.79;64.07
12913;BME280;6524;51.368;11.984;2024-02-21T10:22:34;153702.66;;;8.12;62.17
12913;BME280;6524;51.368;11.984;2024-02-21T10:27:37;153753.50;;;8.32;61.70
12913;BME280;6524;51.368;11.984;2024-02-21T10:32:48;153694.88;;;8.09;62.16
12913;BME280;6524;51.368;11.984;2024-02-21T10:37:49;153733.94;;;8.25;61.89
12913;BME280;6524;51.368;11.984;2024-02-21T10:43:01;153722.22;;;8.20;61.97
12913;BME280;6524;51.368;11.984;2024-02-21T10:48:06;153946.31;;;9.08;60.55
12913;BME280;6524;51.368;11.984;2024-02-21T10:53:21;154017.97;;;9.36;59.21
12913;BME280;6524;51.368;11.984;2024-02-21T10:58:26;153933.25;;;9.03;59.30
12913;BME280;6524;51.368;11.984;2024-02-21T11:03:28;153986.69;;;9.24;60.04
12913;BME280;6524;51.368;11.984;2024-02-21T11:08:28;153887.66;;;8.85;61.05
12913;BME280;6524;51.368;11.984;2024-02-21T11:13:35;153903.28;;;8.91;60.33
12913;BME280;6524;51.368;11.984;2024-02-21T11:18:36;153853.78;;;8.72;60.76
12913;BME280;6524;51.368;11.984;2024-02-21T11:23:36;153889.00;;;8.86;60.74
12913;BME280;6524;51.368;11.984;2024-02-21T11:28:37;153796.44;;;8.49;62.36
12913;BME280;6524;51.368;11.984;2024-02-21T11:33:41;153842.09;;;8.67;62.10
12913;BME280;6524;51.368;11.984;2024-02-21T11:38:42;153830.34;;;8.63;63.08
12913;BME280;6524;51.368;11.984;2024-02-21T11:43:42;153780.81;;;8.43;62.84
12913;BME280;6524;51.368;11.984;2024-02-21T11:48:43;153864.19;;;8.76;62.10
12913;BME280;6524;51.368;11.984;2024-02-21T11:53:48;153898.09;;;8.89;61.90
12913;BME280;6524;51.368;11.984;2024-02-21T11:58:49;153783.41;;;8.44;63.12
12913;BME280;6524;51.368;11.984;2024-02-21T12:03:49;153849.91;;;8.70;63.08
12913;BME280;6524;51.368;11.984;2024-02-21T12:08:49;153741.75;;;8.28;63.68
12913;BME280;6524;51.368;11.984;2024-02-21T12:14:03;153779.53;;;8.43;64.39
12913;BME280;6524;51.368;11.984;2024-02-21T12:19:05;153845.97;;;8.69;63.96
12913;BME280;6524;51.368;11.984;2024-02-21T12:24:24;154139.25;;;9.84;60.69
12913;BME280;6524;51.368;11.984;2024-02-21T12:29:25;154392.31;;;10.83;57.10
12913;BME280;6524;51.368;11.984;2024-02-21T12:34:25;154499.28;;;11.25;54.89
12913;BME280;6524;51.368;11.984;2024-02-21T12:39:27;154316.56;;;10.53;56.15
12913;BME280;6524;51.368;11.984;2024-02-21T12:44:30;154293.09;;;10.44;56.77
12913;BME280;6524;51.368;11.984;2024-02-21T12:49:31;154294.38;;;10.45;57.79
12913;BME280;6524;51.368;11.984;2024-02-21T12:54:32;154379.25;;;10.78;56.24
12913;BME280;6524;51.368;11.984;2024-02-21T12:59:34;154607.56;;;11.67;53.86
12913;BME280;6524;51.368;11.984;2024-02-21T13:04:34;154448.41;;;11.05;54.35
12913;BME280;6524;51.368;11.984;2024-02-21T13:09:35;154749.94;;;12.23;52.89
12913;BME280;6524;51.368;11.984;2024-02-21T13:14:35;154774.75;;;12.33;51.95
12913;BME280;6524;51.368;11.984;2024-02-21T13:19:36;154700.34;;;12.03;51.70
12913;BME280;6524;51.368;11.984;2024-02-21T13:24:37;154785.25;;;12.37;51.98
12913;BME280;6524;51.368;11.984;2024-02-21T13:29:37;154759.09;;;12.26;51.82
12913;BME280;6524;51.368;11.984;2024-02-21T13:34:38;154808.75;;;12.46;51.71
12913;BME280;6524;51.368;11.984;2024-02-21T13:39:38;154957.69;;;13.04;50.59
12913;BME280;6524;51.368;11.984;2024-02-21T13:44:39;154800.91;;;12.43;51.74
12913;BME280;6524;51.368;11.984;2024-02-21T13:49:39;154798.28;;;12.42;52.38
12913;BME280;6524;51.368;11.984;2024-02-21T13:54:40;154751.25;;;12.23;52.17
12913;BME280;6524;51.368;11.984;2024-02-21T13:59:42;154700.34;;;12.03;52.20
12913;BME280;6524;51.368;11.984;2024-02-21T14:04:42;154479.69;;;11.17;52.58
12913;BME280;6524;51.368;11.984;2024-02-21T14:09:43;154477.09;;;11.16;53.25
12913;BME280;6524;51.368;11.984;2024-02-21T14:14:43;154334.81;;;10.60;54.70
12913;BME280;6524;51.368;11.984;2024-02-21T14:19:44;154341.34;;;10.63;54.32
12913;BME280;6524;51.368;11.984;2024-02-21T14:24:45;154294.38;;;10.45;55.40
12913;BME280;6524;51.368;11.984;2024-02-21T14:29:45;154239.59;;;10.23;56.30
12913;BME280;6524;51.368;11.984;2024-02-21T14:34:45;154177.06;;;9.99;56.33
12913;BME280;6524;51.368;11.984;2024-02-21T14:39:47;154203.13;;;10.09;56.81
12913;BME280;6524;51.368;11.984;2024-02-21T14:44:47;154234.44;;;10.21;55.75
12913;BME280;6524;51.368;11.984;2024-02-21T14:49:48;154297.03;;;10.46;54.56
12913;BME280;6524;51.368;11.984;2024-02-21T14:54:48;154286.56;;;10.41;54.52
12913;BME280;6524;51.368;11.984;2024-02-21T14:59:52;154274.84;;;10.37;54.79
12913;BME280;6524;51.368;11.984;2024-02-21T15:05:03;154244.84;;;10.25;55.12
12913;BME280;6524;51.368;11.984;2024-02-21T15:10:39;154286.56;;;10.41;54.32
12913;BME280;6524;51.368;11.984;2024-02-21T15:16:10;154260.50;;;10.31;53.91
12913;BME280;6524;51.368;11.984;2024-02-21T15:21:11;154265.72;;;10.33;52.63
12913;BME280;6524;51.368;11.984;2024-02-21T15:26:15;154229.19;;;10.19;52.52
12913;BME280;6524;51.368;11.984;2024-02-21T15:31:22;154177.06;;;9.99;52.13
12913;BME280;6524;51.368;11.984;2024-02-21T15:36:22;154132.72;;;9.81;51.52
12913;BME280;6524;51.368;11.984;2024-02-21T15:41:23;154183.53;;;10.01;51.72
12913;BME280;6524;51.368;11.984;2024-02-21T15:46:26;154187.47;;;10.03;51.20
12913;BME280;6524;51.368;11.984;2024-02-21T15:51:29;154175.72;;;9.98;50.69
12913;BME280;6524;51.368;11.984;2024-02-21T15:56:49;154119.66;;;9.76;50.78
12913;BME280;6524;51.368;11.984;2024-02-21T16:01:49;154111.84;;;9.73;51.29
12913;BME280;6524;51.368;11.984;2024-02-21T16:06:50;154059.69;;;9.53;51.91
12913;BME280;6524;51.368;11.984;2024-02-21T16:11:51;154064.91;;;9.55;51.63
12913;BME280;6524;51.368;11.984;2024-02-21T16:16:51;153978.88;;;9.21;52.25
12913;BME280;6524;51.368;11.984;2024-02-21T16:21:55;153885.06;;;8.84;52.44
12913;BME280;6524;51.368;11.984;2024-02-21T16:33:17;153872.00;;;8.79;52.56
12913;BME280;6524;51.368;11.984;2024-02-21T16:38:17;153776.94;;;8.42;53.75
12913;BME280;6524;51.368;11.984;2024-02-21T16:55:27;153676.66;;;8.02;53.92
12913;BME280;6524;51.368;11.984;2024-02-21T17:00:28;153653.22;;;7.93;54.88
12913;BME280;6524;51.368;11.984;2024-02-21T17:05:28;153606.34;;;7.75;55.21
12913;BME280;6524;51.368;11.984;2024-02-21T17:10:29;153668.84;;;7.99;54.86
12913;BME280;6524;51.368;11.984;2024-02-21T17:15:31;153697.50;;;8.10;53.93
12913;BME280;6524;51.368;11.984;2024-02-21T17:20:31;153694.88;;;8.09;53.12
12913;BME280;6524;51.368;11.984;2024-02-21T17:25:33;153718.31;;;8.19;53.26
12913;BME280;6524;51.368;11.984;2024-02-21T17:30:33;153692.28;;;8.08;53.33
12913;BME280;6524;51.368;11.984;2024-02-21T17:35:36;153631.06;;;7.84;53.91
12913;BME280;6524;51.368;11.984;2024-02-21T17:40:36;153590.72;;;7.69;54.78
12913;BME280;6524;51.368;11.984;2024-02-21T17:45:36;153628.47;;;7.83;54.83
12913;BME280;6524;51.368;11.984;2024-02-21T17:50:39;153607.63;;;7.75;55.46
12913;BME280;6524;51.368;11.984;2024-02-21T17:55:39;153590.72;;;7.69;56.13
12913;BME280;6524;51.368;11.984;2024-02-21T18:00:40;153550.38;;;7.53;56.68
12913;BME280;6524;51.368;11.984;2024-02-21T18:05:45;153566.00;;;7.59;56.84
12913;BME280;6524;51.368;11.984;2024-02-21T18:10:46;153507.44;;;7.36;57.28
12913;BME280;6524;51.368;11.984;2024-02-21T18:15:47;153568.59;;;7.60;57.03
12913;BME280;6524;51.368;11.984;2024-02-21T18:20:47;153442.34;;;7.10;58.55
12913;BME280;6524;51.368;11.984;2024-02-21T18:25:48;153456.63;;;7.16;58.48
12913;BME280;6524;51.368;11.984;2024-02-21T18:30:49;153536.06;;;7.47;57.77
12913;BME280;6524;51.368;11.984;2024-02-21T18:35:49;153542.56;;;7.50;58.00
12913;BME280;6524;51.368;11.984;2024-02-21T18:40:50;153556.88;;;7.55;58.07
12913;BME280;6524;51.368;11.984;2024-02-21T18:45:50;153495.72;;;7.31;58.77
12913;BME280;6524;51.368;11.984;2024-02-21T18:50:50;153589.44;;;7.68;57.69
12913;BME280;6524;51.368;11.984;2024-02-21T18:55:51;153593.34;;;7.70;57.75
12913;BME280;6524;51.368;11.984;2024-02-21T19:00:51;153590.72;;;7.69;57.53
12913;BME280;6524;51.368;11.984;2024-02-21T19:05:52;153608.97;;;7.76;57.67
12913;BME280;6524;51.368;11.984;2024-02-21T19:10:52;153621.97;;;7.81;57.71
12913;BME280;6524;51.368;11.984;2024-02-21T19:15:52;153486.59;;;7.28;58.95
12913;BME280;6524;51.368;11.984;2024-02-21T19:20:53;153506.16;;;7.35;58.66
12913;BME280;6524;51.368;11.984;2024-02-21T19:25:53;153512.63;;;7.38;58.87
12913;BME280;6524;51.368;11.984;2024-02-21T19:30:54;153508.75;;;7.36;58.46
12913;BME280;6524;51.368;11.984;2024-02-21T19:35:54;153579.03;;;7.64;57.62
12913;BME280;6524;51.368;11.984;2024-02-21T19:40:55;153538.69;;;7.48;58.09
12913;BME280;6524;51.368;11.984;2024-02-21T19:45:55;153545.22;;;7.51;57.66
12913;BME280;6524;51.368;11.984;2024-02-21T19:50:56;153569.94;;;7.60;57.68
12913;BME280;6524;51.368;11.984;2024-02-21T19:55:57;153551.66;;;7.53;57.57
12913;BME280;6524;51.368;11.984;2024-02-21T20:00:57;153424.09;;;7.03;58.70
12913;BME280;6524;51.368;11.984;2024-02-21T20:05:57;153517.84;;;7.40;57.71
12913;BME280;6524;51.368;11.984;2024-02-21T20:10:58;153429.31;;;7.05;58.66
12913;BME280;6524;51.368;11.984;2024-02-21T20:15:58;153523.06;;;7.42;57.50
12913;BME280;6524;51.368;11.984;2024-02-21T20:20:58;153493.13;;;7.30;57.52
12913;BME280;6524;51.368;11.984;2024-02-21T20:25:59;153538.69;;;7.48;56.81
12913;BME280;6524;51.368;11.984;2024-02-21T20:31:00;153569.94;;;7.60;56.19
12913;BME280;6524;51.368;11.984;2024-02-21T20:36:00;153588.13;;;7.68;55.80
12913;BME280;6524;51.368;11.984;2024-02-21T20:41:01;153590.72;;;7.69;55.45
12913;BME280;6524;51.368;11.984;2024-02-21T20:46:05;153661.03;;;7.96;54.68
12913;BME280;6524;51.368;11.984;2024-02-21T20:51:07;153512.63;;;7.38;55.63
12913;BME280;6524;51.368;11.984;2024-02-21T20:56:07;153571.22;;;7.61;53.68
12913;BME280;6524;51.368;11.984;2024-02-21T21:01:17;153526.94;;;7.43;53.66
12913;BME280;6524;51.368;11.984;2024-02-21T21:06:21;153536.06;;;7.47;53.73
12913;BME280;6524;51.368;11.984;2024-02-21T21:11:24;153567.28;;;7.59;53.38
12913;BME280;6524;51.368;11.984;2024-02-21T21:16:26;153521.78;;;7.41;52.99
12913;BME280;6524;51.368;11.984;2024-02-21T21:21:32;153463.13;;;7.18;52.59
12913;BME280;6524;51.368;11.984;2024-02-21T21:26:33;153504.81;;;7.35;51.40
12913;BME280;6524;51.368;11.984;2024-02-21T21:31:35;153554.31;;;7.54;51.63
12913;BME280;6524;51.368;11.984;2024-02-21T21:36:36;153484.03;;;7.27;51.82
12913;BME280;6524;51.368;11.984;2024-02-21T21:41:36;153549.09;;;7.52;51.13
12913;BME280;6524;51.368;11.984;2024-02-21T21:46:37;153538.69;;;7.48;51.43
12913;BME280;6524;51.368;11.984;2024-02-21T21:51:43;153541.28;;;7.49;50.93
12913;BME280;6524;51.368;11.984;2024-02-21T21:56:44;153571.22;;;7.61;50.65
12913;BME280;6524;51.368;11.984;2024-02-21T22:01:45;153567.28;;;7.59;50.46
12913;BME280;6524;51.368;11.984;2024-02-21T22:06:46;153611.56;;;7.77;49.83
12913;BME280;6524;51.368;11.984;2024-02-21T22:11:46;153567.28;;;7.59;50.27
12913;BME280;6524;51.368;11.984;2024-02-21T22:16:47;153635.00;;;7.86;50.19
12913;BME280;6524;51.368;11.984;2024-02-21T22:21:47;153541.28;;;7.49;50.88
12913;BME280;6524;51.368;11.984;2024-02-21T22:26:47;153564.72;;;7.58;50.46
12913;BME280;6524;51.368;11.984;2024-02-21T22:31:50;153619.38;;;7.80;50.38
12913;BME280;6524;51.368;11.984;2024-02-21T22:36:51;153579.03;;;7.64;50.09
12913;BME280;6524;51.368;11.984;2024-02-21T22:41:51;153538.69;;;7.48;50.45
12913;BME280;6524;51.368;11.984;2024-02-21T22:46:52;153560.78;;;7.57;50.27
12913;BME280;6524;51.368;11.984;2024-02-21T22:51:52;153577.75;;;7.63;50.49
12913;BME280;6524;51.368;11.984;2024-02-21T22:56:55;153593.34;;;7.70;50.15
12913;BME280;6524;51.368;11.984;2024-02-21T23:01:56;153573.81;;;7.62;50.30
12913;BME280;6524;51.368;11.984;2024-02-21T23:06:57;153576.41;;;7.63;50.25
12913;BME280;6524;51.368;11.984;2024-02-21T23:11:58;153524.38;;;7.42;50.88
12913;BME280;6524;51.368;11.984;2024-02-21T23:16:58;153585.53;;;7.67;50.15
12913;BME280;6524;51.368;11.984;2024-02-21T23:21:58;153676.66;;;8.02;49.15
12913;BME280;6524;51.368;11.984;2024-02-21T23:27:00;153642.81;;;7.89;49.15
12913;BME280;6524;51.368;11.984;2024-02-21T23:32:00;153715.72;;;8.18;47.97
12913;BME280;6524;51.368;11.984;2024-02-21T23:37:00;153706.59;;;8.14;47.99
12913;BME280;6524;51.368;11.984;2024-02-21T23:42:00;153752.16;;;8.32;48.07
12913;BME280;6524;51.368;11.984;2024-02-21T23:47:02;153705.31;;;8.14;49.32
12913;BME280;6524;51.368;11.984;2024-02-21T23:52:02;153667.53;;;7.99;50.36
12913;BME280;6524;51.368;11.984;2024-02-21T23:57:04;153718.31;;;8.19;50.58
